Time,TemperatureF,DewpointF,PressureIn,WindDirection,WindDirectionDegrees,WindSpeedMPH,WindSpeedGustMPH,Humidity,HourlyPrecipIn,Conditions,Clouds,dailyrainin,SoftwareType,DateUTC
2013-09-26 00:02:00,63.1,55.0,29.82,ESE,113,0.0,0.0,75,0.00,,,0.00,WUHU216HW,2013-09-26 05:02:00,
2013-09-26 00:07:00,63.1,55.4,29.83,ESE,113,0.0,0.0,76,0.00,,,0.00,WUHU216HW,2013-09-26 05:07:00,
2013-09-26 00:12:00,62.7,55.0,29.83,East,90,0.0,0.0,76,0.00,,,0.00,WUHU216HW,2013-09-26 05:12:00,
2013-09-26 00:17:00,62.6,55.2,29.83,East,90,0.0,0.0,77,0.00,,,0.00,WUHU216HW,2013-09-26 05:17:00,
2013-09-26 00:22:00,62.4,55.0,29.84,ENE,68,0.0,0.0,77,0.00,,,0.00,WUHU216HW,2013-09-26 05:22:00,
2013-09-26 00:27:00,62.2,55.2,29.83,ENE,68,0.0,0.0,78,0.00,,,0.00,WUHU216HW,2013-09-26 05:27:00,
2013-09-26 00:32:00,61.8,55.2,29.84,ESE,113,0.0,0.0,79,0.00,,,0.00,WUHU216HW,2013-09-26 05:32:00,
2013-09-26 00:37:00,61.7,55.1,29.84,ESE,113,0.0,0.0,79,0.00,,,0.00,WUHU216HW,2013-09-26 05:37:00,
2013-09-26 00:42:00,61.5,54.9,29.84,ESE,113,0.0,0.0,79,0.00,,,0.00,WUHU216HW,2013-09-26 05:42:00,
2013-09-26 00:47:00,61.5,54.9,29.84,East,90,0.0,0.0,79,0.00,,,0.00,WUHU216HW,2013-09-26 05:47:00,
2013-09-26 00:52:00,61.5,55.3,29.84,East,90,0.0,0.0,80,0.00,,,0.00,WUHU216HW,2013-09-26 05:52:00,
2013-09-26 00:57:00,61.7,55.4,29.84,ENE,68,0.0,0.0,80,0.00,,,0.00,WUHU216HW,2013-09-26 05:57:00,
2013-09-26 01:02:00,61.7,55.4,29.84,ENE,68,0.0,0.0,80,0.00,,,0.00,WUHU216HW,2013-09-26 06:02:00,
2013-09-26 01:07:00,61.7,55.8,29.84,East,90,0.0,0.0,81,0.00,,,0.00,WUHU216HW,2013-09-26 06:07:00,
2013-09-26 01:12:00,61.7,55.8,29.84,ENE,68,0.0,0.0,81,0.00,,,0.00,WUHU216HW,2013-09-26 06:12:00,
2013-09-26 01:17:00,61.5,55.6,29.85,ESE,113,0.0,0.0,81,0.00,,,0.00,WUHU216HW,2013-09-26 06:17:00,
2013-09-26 01:22:00,61.5,55.6,29.85,East,90,0.0,0.0,81,0.00,,,0.00,WUHU216HW,2013-09-26 06:22:00,
2013-09-26 01:27:00,61.5,55.6,29.85,ESE,113,0.0,0.0,81,0.00,,,0.00,WUHU216HW,2013-09-26 06:27:00,
2013-09-26 01:33:00,61.5,55.6,29.85,ESE,113,0.0,0.0,81,0.00,,,0.00,WUHU216HW,2013-09-26 06:33:00,
2013-09-26 01:38:00,61.5,55.6,29.85,East,90,0.0,0.0,81,0.00,,,0.00,WUHU216HW,2013-09-26 06:38:00,
2013-09-26 01:43:00,61.5,55.6,29.85,SSE,158,0.0,0.0,81,0.00,,,0.00,WUHU216HW,2013-09-26 06:43:00,
2013-09-26 01:48:00,61.5,55.6,29.85,East,90,0.0,0.0,81,0.00,,,0.00,WUHU216HW,2013-09-26 06:48:00,
2013-09-26 01:53:00,61.5,55.6,29.85,South,180,0.0,0.0,81,0.00,,,0.00,WUHU216HW,2013-09-26 06:53:00,
2013-09-26 01:58:00,61.5,55.6,29.85,East,90,1.3,1.3,81,0.00,,,0.00,WUHU216HW,2013-09-26 06:58:00,
2013-09-26 02:03:00,61.5,55.6,29.85,ESE,113,0.0,1.3,81,0.00,,,0.00,WUHU216HW,2013-09-26 07:03:00,
2013-09-26 02:08:00,61.3,55.4,29.85,WNW,293,0.0,1.3,81,0.00,,,0.00,WUHU216HW,2013-09-26 07:08:00,
2013-09-26 02:13:00,61.3,55.4,29.86,SE,135,0.0,0.0,81,0.00,,,0.00,WUHU216HW,2013-09-26 07:13:00,
2013-09-26 02:18:00,61.1,55.3,29.85,NNE,23,0.0,0.0,81,0.00,,,0.00,WUHU216HW,2013-09-26 07:18:00,
2013-09-26 02:23:00,61.1,55.3,29.85,ENE,68,0.0,0.0,81,0.00,,,0.00,WUHU216HW,2013-09-26 07:23:00,
2013-09-26 02:28:00,60.9,55.4,29.85,East,90,0.0,0.0,82,0.00,,,0.00,WUHU216HW,2013-09-26 07:28:00,
2013-09-26 02:33:00,60.9,55.4,29.85,ENE,68,0.0,0.0,82,0.00,,,0.00,WUHU216HW,2013-09-26 07:33:00,
2013-09-26 02:38:00,60.8,55.3,29.86,ENE,68,0.8,2.0,82,0.00,,,0.00,WUHU216HW,2013-09-26 07:38:00,
2013-09-26 02:43:00,60.6,55.1,29.86,East,90,0.0,2.0,82,0.00,,,0.00,WUHU216HW,2013-09-26 07:43:00,
2013-09-26 02:49:00,60.6,55.1,29.86,ENE,68,0.0,0.8,82,0.00,,,0.00,WUHU216HW,2013-09-26 07:49:00,
2013-09-26 02:54:00,60.6,55.1,29.86,ESE,113,0.0,0.0,82,0.00,,,0.00,WUHU216HW,2013-09-26 07:54:00,
2013-09-26 02:59:00,60.4,54.9,29.86,ENE,68,0.0,1.5,82,0.00,,,0.00,WUHU216HW,2013-09-26 07:59:00,
2013-09-26 03:04:00,60.4,54.9,29.86,ENE,68,0.0,1.5,82,0.00,,,0.00,WUHU216HW,2013-09-26 08:04:00,
2013-09-26 03:09:00,60.0,54.6,29.86,ENE,68,0.0,0.0,82,0.00,,,0.00,WUHU216HW,2013-09-26 08:09:00,
2013-09-26 03:14:00,60.0,54.6,29.86,ENE,68,0.0,0.0,82,0.00,,,0.00,WUHU216HW,2013-09-26 08:14:00,
2013-09-26 03:19:00,59.9,54.4,29.86,East,90,0.0,0.0,82,0.00,,,0.00,WUHU216HW,2013-09-26 08:19:00,
2013-09-26 03:24:00,59.7,54.2,29.86,NNE,23,0.0,0.0,82,0.00,,,0.00,WUHU216HW,2013-09-26 08:24:00,
2013-09-26 03:29:00,59.5,53.7,29.86,East,90,0.0,0.0,81,0.00,,,0.00,WUHU216HW,2013-09-26 08:29:00,
2013-09-26 03:34:00,59.5,53.7,29.86,ESE,113,0.0,0.0,81,0.00,,,0.00,WUHU216HW,2013-09-26 08:34:00,
2013-09-26 03:39:00,59.1,53.3,29.86,ESE,113,0.0,1.3,81,0.00,,,0.00,WUHU216HW,2013-09-26 08:39:00,
2013-09-26 03:44:00,58.8,53.0,29.87,ENE,68,0.0,2.0,81,0.00,,,0.00,WUHU216HW,2013-09-26 08:44:00,
2013-09-26 03:49:00,58.8,53.0,29.87,ESE,113,0.0,2.0,81,0.00,,,0.00,WUHU216HW,2013-09-26 08:49:00,
2013-09-26 03:54:00,58.8,53.0,29.86,East,90,1.1,1.1,81,0.00,,,0.00,WUHU216HW,2013-09-26 08:54:00,
2013-09-26 03:59:00,58.8,53.0,29.87,East,90,0.0,1.1,81,0.00,,,0.00,WUHU216HW,2013-09-26 08:59:00,
2013-09-26 04:04:00,58.6,52.8,29.86,East,90,0.0,0.0,81,0.00,,,0.00,WUHU216HW,2013-09-26 09:04:00,
2013-09-26 04:10:00,58.6,52.8,29.86,ESE,113,0.0,0.0,81,0.00,,,0.00,WUHU216HW,2013-09-26 09:10:00,
2013-09-26 04:15:00,58.2,52.4,29.86,ENE,68,0.0,0.0,81,0.00,,,0.00,WUHU216HW,2013-09-26 09:15:00,
2013-09-26 04:20:00,58.1,52.3,29.86,ENE,68,0.0,0.0,81,0.00,,,0.00,WUHU216HW,2013-09-26 09:20:00,
2013-09-26 04:25:00,57.9,52.1,29.86,ENE,68,0.0,0.0,81,0.00,,,0.00,WUHU216HW,2013-09-26 09:25:00,
2013-09-26 04:30:00,57.7,51.9,29.86,ENE,68,0.0,0.0,81,0.00,,,0.00,WUHU216HW,2013-09-26 09:30:00,
2013-09-26 04:35:00,57.7,52.2,29.87,ENE,68,0.0,0.0,82,0.00,,,0.00,WUHU216HW,2013-09-26 09:35:00,
2013-09-26 04:40:00,57.5,52.0,29.87,ESE,113,0.0,0.0,82,0.00,,,0.00,WUHU216HW,2013-09-26 09:40:00,
2013-09-26 04:45:00,57.3,51.9,29.87,East,90,0.0,0.0,82,0.00,,,0.00,WUHU216HW,2013-09-26 09:45:00,
2013-09-26 04:50:00,57.2,51.7,29.87,East,90,0.0,0.0,82,0.00,,,0.00,WUHU216HW,2013-09-26 09:50:00,
2013-09-26 04:55:00,57.0,51.5,29.87,East,90,0.0,0.0,82,0.00,,,0.00,WUHU216HW,2013-09-26 09:55:00,
2013-09-26 05:00:00,57.0,51.5,29.87,ESE,113,0.0,0.0,82,0.00,,,0.00,WUHU216HW,2013-09-26 10:00:00,
2013-09-26 05:05:00,56.8,51.3,29.88,ESE,113,0.0,0.0,82,0.00,,,0.00,WUHU216HW,2013-09-26 10:05:00,
2013-09-26 05:10:00,56.8,51.3,29.88,East,90,0.0,0.0,82,0.00,,,0.00,WUHU216HW,2013-09-26 10:10:00,
2013-09-26 05:15:00,56.6,51.5,29.88,ESE,113,0.0,0.0,83,0.00,,,0.00,WUHU216HW,2013-09-26 10:15:00,
2013-09-26 05:20:00,56.6,51.5,29.88,SE,135,0.0,0.0,83,0.00,,,0.00,WUHU216HW,2013-09-26 10:20:00,
2013-09-26 05:25:00,56.4,51.3,29.88,NE,45,0.0,0.0,83,0.00,,,0.00,WUHU216HW,2013-09-26 10:25:00,
2013-09-26 05:30:00,56.4,51.3,29.88,NE,45,0.0,0.0,83,0.00,,,0.00,WUHU216HW,2013-09-26 10:30:00,
2013-09-26 05:35:00,56.3,51.1,29.88,NE,45,0.0,0.0,83,0.00,,,0.00,WUHU216HW,2013-09-26 10:35:00,
2013-09-26 05:40:00,56.1,50.9,29.88,ESE,113,0.0,0.0,83,0.00,,,0.00,WUHU216HW,2013-09-26 10:40:00,
2013-09-26 05:45:00,56.1,50.9,29.88,East,90,0.0,0.0,83,0.00,,,0.00,WUHU216HW,2013-09-26 10:45:00,
2013-09-26 05:50:00,56.1,50.9,29.88,East,90,0.0,0.0,83,0.00,,,0.00,WUHU216HW,2013-09-26 10:50:00,
2013-09-26 05:55:00,55.9,50.7,29.88,SE,135,0.0,0.0,83,0.00,,,0.00,WUHU216HW,2013-09-26 10:55:00,
2013-09-26 06:00:00,55.9,50.7,29.88,East,90,0.0,0.0,83,0.00,,,0.00,WUHU216HW,2013-09-26 11:00:00,
2013-09-26 06:05:00,55.9,50.7,29.88,East,90,0.0,0.0,83,0.00,,,0.00,WUHU216HW,2013-09-26 11:05:00,
2013-09-26 06:10:00,55.9,50.7,29.88,ENE,68,0.0,0.0,83,0.00,,,0.00,WUHU216HW,2013-09-26 11:10:00,
2013-09-26 06:15:00,55.7,50.9,29.88,East,90,0.0,0.0,84,0.00,,,0.00,WUHU216HW,2013-09-26 11:15:00,
2013-09-26 06:20:00,55.7,50.9,29.88,ENE,68,0.0,0.0,84,0.00,,,0.00,WUHU216HW,2013-09-26 11:20:00,
2013-09-26 06:25:00,55.5,50.7,29.88,East,90,0.0,0.0,84,0.00,,,0.00,WUHU216HW,2013-09-26 11:25:00,
2013-09-26 06:30:00,55.5,50.7,29.88,ENE,68,0.0,0.0,84,0.00,,,0.00,WUHU216HW,2013-09-26 11:30:00,
2013-09-26 06:36:00,55.5,50.7,29.88,ESE,113,0.0,0.0,84,0.00,,,0.00,WUHU216HW,2013-09-26 11:36:00,
2013-09-26 06:41:00,55.5,50.7,29.88,SE,135,0.0,0.0,84,0.00,,,0.00,WUHU216HW,2013-09-26 11:41:00,
2013-09-26 06:46:00,55.4,50.5,29.88,SE,135,0.0,0.0,84,0.00,,,0.00,WUHU216HW,2013-09-26 11:46:00,
2013-09-26 06:51:00,55.4,50.5,29.89,East,90,0.0,0.0,84,0.00,,,0.00,WUHU216HW,2013-09-26 11:51:00,
2013-09-26 06:56:00,55.2,50.3,29.88,South,180,0.0,0.0,84,0.00,,,0.00,WUHU216HW,2013-09-26 11:56:00,
2013-09-26 07:02:00,55.2,50.3,29.89,ESE,113,0.0,0.0,84,0.00,,,0.00,WUHU216HW,2013-09-26 12:02:00,
2013-09-26 07:07:00,55.2,50.3,29.89,ESE,113,0.0,0.0,84,0.00,,,0.00,WUHU216HW,2013-09-26 12:07:00,
2013-09-26 07:12:00,55.2,50.7,29.89,SE,135,0.0,0.0,85,0.00,,,0.00,WUHU216HW,2013-09-26 12:12:00,
2013-09-26 07:17:00,55.2,50.7,29.89,ESE,113,0.0,0.0,85,0.00,,,0.00,WUHU216HW,2013-09-26 12:17:00,
2013-09-26 07:22:00,55.2,50.7,29.89,ESE,113,0.0,0.0,85,0.00,,,0.00,WUHU216HW,2013-09-26 12:22:00,
2013-09-26 07:27:00,55.2,50.7,29.90,East,90,0.0,0.0,85,0.00,,,0.00,WUHU216HW,2013-09-26 12:27:00,
2013-09-26 07:32:00,55.4,50.9,29.90,East,90,0.0,0.0,85,0.00,,,0.00,WUHU216HW,2013-09-26 12:32:00,
2013-09-26 07:37:00,55.5,51.0,29.90,SW,225,0.0,0.0,85,0.00,,,0.00,WUHU216HW,2013-09-26 12:37:00,
2013-09-26 07:42:00,55.5,51.0,29.90,ESE,113,0.0,0.0,85,0.00,,,0.00,WUHU216HW,2013-09-26 12:42:00,
2013-09-26 07:47:00,55.7,51.2,29.90,SE,135,0.0,0.0,85,0.00,,,0.00,WUHU216HW,2013-09-26 12:47:00,
2013-09-26 07:52:00,55.9,51.4,29.90,ESE,113,0.0,0.0,85,0.00,,,0.00,WUHU216HW,2013-09-26 12:52:00,
2013-09-26 07:57:00,56.1,51.6,29.90,SSE,158,0.0,0.0,85,0.00,,,0.00,WUHU216HW,2013-09-26 12:57:00,
2013-09-26 08:02:00,56.1,51.6,29.90,SSE,158,0.0,0.0,85,0.00,,,0.00,WUHU216HW,2013-09-26 13:02:00,
2013-09-26 08:07:00,56.4,51.9,29.90,ENE,68,0.0,0.0,85,0.00,,,0.00,WUHU216HW,2013-09-26 13:07:00,
2013-09-26 08:12:00,56.8,52.3,29.90,ENE,68,0.0,0.0,85,0.00,,,0.00,WUHU216HW,2013-09-26 13:12:00,
2013-09-26 08:17:00,57.0,52.5,29.91,South,180,0.0,0.0,85,0.00,,,0.00,WUHU216HW,2013-09-26 13:17:00,
2013-09-26 08:22:00,57.3,52.8,29.91,East,90,0.0,1.3,85,0.00,,,0.00,WUHU216HW,2013-09-26 13:22:00,
2013-09-26 08:27:00,57.9,53.4,29.91,SSE,158,0.0,1.3,85,0.00,,,0.00,WUHU216HW,2013-09-26 13:27:00,
2013-09-26 08:32:00,58.1,53.6,29.90,SE,135,0.0,0.0,85,0.00,,,0.00,WUHU216HW,2013-09-26 13:32:00,
2013-09-26 08:37:00,58.4,53.9,29.90,SSE,158,0.8,0.8,85,0.00,,,0.00,WUHU216HW,2013-09-26 13:37:00,
2013-09-26 08:42:00,58.8,54.3,29.90,SSE,158,2.9,2.9,85,0.00,,,0.00,WUHU216HW,2013-09-26 13:42:00,
2013-09-26 08:47:00,58.8,54.3,29.90,NE,45,0.0,2.9,85,0.00,,,0.00,WUHU216HW,2013-09-26 13:47:00,
2013-09-26 08:52:00,59.3,54.8,29.90,East,90,0.0,2.9,85,0.00,,,0.00,WUHU216HW,2013-09-26 13:52:00,
2013-09-26 08:57:00,59.3,54.8,29.90,East,90,0.0,0.0,85,0.00,,,0.00,WUHU216HW,2013-09-26 13:57:00,
2013-09-26 09:02:00,60.4,55.6,29.90,SSE,158,0.0,1.1,84,0.00,,,0.00,WUHU216HW,2013-09-26 14:02:00,
2013-09-26 09:07:00,60.6,55.7,29.90,SSE,158,0.0,1.5,84,0.00,,,0.00,WUHU216HW,2013-09-26 14:07:00,
2013-09-26 09:12:00,61.1,56.3,29.90,NNE,23,0.0,1.5,84,0.00,,,0.00,WUHU216HW,2013-09-26 14:12:00,
2013-09-26 09:17:00,61.5,56.3,29.90,South,180,3.1,3.1,83,0.00,,,0.00,WUHU216HW,2013-09-26 14:17:00,
2013-09-26 09:23:00,61.8,56.6,29.90,NE,45,2.0,3.1,83,0.00,,,0.00,WUHU216HW,2013-09-26 14:23:00,
2013-09-26 09:28:00,62.4,57.1,29.90,ESE,113,0.0,2.9,83,0.00,,,0.00,WUHU216HW,2013-09-26 14:28:00,
2013-09-26 09:33:00,63.1,57.8,29.90,SSE,158,0.0,2.9,83,0.00,,,0.00,WUHU216HW,2013-09-26 14:33:00,
2013-09-26 09:38:00,63.5,57.8,29.90,South,180,6.4,6.4,82,0.00,,,0.00,WUHU216HW,2013-09-26 14:38:00,
2013-09-26 09:43:00,64.0,58.0,29.91,South,180,5.5,6.4,81,0.00,,,0.00,WUHU216HW,2013-09-26 14:43:00,
2013-09-26 09:48:00,64.4,58.4,29.90,SSE,158,0.0,5.5,81,0.00,,,0.00,WUHU216HW,2013-09-26 14:48:00,
2013-09-26 09:53:00,64.9,58.9,29.90,SW,225,3.1,5.5,81,0.00,,,0.00,WUHU216HW,2013-09-26 14:53:00,
2013-09-26 09:58:00,65.3,59.0,29.90,South,180,4.6,4.6,80,0.00,,,0.00,WUHU216HW,2013-09-26 14:58:00,
2013-09-26 10:03:00,65.4,58.8,29.90,South,180,3.8,4.6,79,0.00,,,0.00,WUHU216HW,2013-09-26 15:03:00,
2013-09-26 10:08:00,65.8,59.1,29.90,South,180,2.9,7.8,79,0.00,,,0.00,WUHU216HW,2013-09-26 15:08:00,
2013-09-26 10:13:00,66.2,59.5,29.90,SSW,203,4.0,7.8,79,0.00,,,0.00,WUHU216HW,2013-09-26 15:13:00,
2013-09-26 10:18:00,66.7,60.0,29.90,SSE,158,3.5,7.3,79,0.00,,,0.00,WUHU216HW,2013-09-26 15:18:00,
2013-09-26 10:23:00,66.9,59.8,29.90,SSE,158,5.1,7.3,78,0.00,,,0.00,WUHU216HW,2013-09-26 15:23:00,
2013-09-26 10:28:00,67.6,60.5,29.90,South,180,5.1,5.1,78,0.00,,,0.00,WUHU216HW,2013-09-26 15:28:00,
2013-09-26 10:33:00,67.6,60.5,29.90,South,180,5.1,5.1,78,0.00,,,0.00,WUHU216HW,2013-09-26 15:33:00,
2013-09-26 10:38:00,68.5,61.0,29.90,SSW,203,6.0,6.0,77,0.00,,,0.00,WUHU216HW,2013-09-26 15:38:00,
2013-09-26 10:43:00,69.2,61.7,29.90,SSW,203,4.0,6.0,77,0.00,,,0.00,WUHU216HW,2013-09-26 15:43:00,
2013-09-26 10:48:00,69.9,61.9,29.91,South,180,5.5,7.3,76,0.00,,,0.00,WUHU216HW,2013-09-26 15:48:00,
2013-09-26 10:53:00,70.5,62.1,29.90,South,180,3.8,7.3,75,0.00,,,0.00,WUHU216HW,2013-09-26 15:53:00,
2013-09-26 10:58:00,71.4,62.6,29.90,ESE,113,2.6,4.6,74,0.00,,,0.00,WUHU216HW,2013-09-26 15:58:00,
2013-09-26 11:03:00,72.3,63.5,29.90,NE,45,0.0,4.2,74,0.00,,,0.00,WUHU216HW,2013-09-26 16:03:00,
2013-09-26 11:08:00,73.2,64.0,29.90,SSW,203,2.2,2.6,73,0.00,,,0.00,WUHU216HW,2013-09-26 16:08:00,
2013-09-26 11:13:00,74.4,64.4,29.90,SSW,203,10.2,10.2,71,0.00,,,0.00,WUHU216HW,2013-09-26 16:13:00,
2013-09-26 11:18:00,75.0,64.5,29.90,SE,135,2.4,10.2,70,0.00,,,0.00,WUHU216HW,2013-09-26 16:18:00,
2013-09-26 11:23:00,75.9,65.0,29.90,SW,225,8.9,10.2,69,0.00,,,0.00,WUHU216HW,2013-09-26 16:23:00,
2013-09-26 11:28:00,77.0,65.6,29.90,South,180,6.7,8.9,68,0.00,,,0.00,WUHU216HW,2013-09-26 16:28:00,
2013-09-26 11:33:00,77.7,65.8,29.90,NNE,23,0.0,6.7,67,0.00,,,0.00,WUHU216HW,2013-09-26 16:33:00,
2013-09-26 11:38:00,78.6,65.8,29.89,South,180,9.8,9.8,65,0.00,,,0.00,WUHU216HW,2013-09-26 16:38:00,
2013-09-26 11:43:00,78.9,65.7,29.90,South,180,8.2,9.8,64,0.00,,,0.00,WUHU216HW,2013-09-26 16:43:00,
2013-09-26 11:48:00,79.3,65.6,29.89,South,180,5.3,8.2,63,0.00,,,0.00,WUHU216HW,2013-09-26 16:48:00,
2013-09-26 11:53:00,79.7,65.5,29.89,SSW,203,3.5,8.5,62,0.00,,,0.00,WUHU216HW,2013-09-26 16:53:00,
2013-09-26 11:58:00,80.4,65.7,29.89,SSE,158,8.0,8.5,61,0.00,,,0.00,WUHU216HW,2013-09-26 16:58:00,
2013-09-26 12:03:00,81.3,66.1,29.89,SSW,203,6.0,10.7,60,0.00,,,0.00,WUHU216HW,2013-09-26 17:03:00,
2013-09-26 12:08:00,81.6,65.9,29.88,South,180,6.2,10.7,59,0.00,,,0.00,WUHU216HW,2013-09-26 17:08:00,
2013-09-26 12:13:00,82.2,66.4,29.89,SSW,203,8.7,8.7,59,0.00,,,0.00,WUHU216HW,2013-09-26 17:13:00,
2013-09-26 12:18:00,82.5,66.2,29.88,South,180,6.0,8.9,58,0.00,,,0.00,WUHU216HW,2013-09-26 17:18:00,
2013-09-26 12:23:00,82.9,66.0,29.88,SSW,203,13.4,13.4,57,0.00,,,0.00,WUHU216HW,2013-09-26 17:23:00,
2013-09-26 12:28:00,82.9,66.0,29.88,SSW,203,13.4,13.4,57,0.00,,,0.00,WUHU216HW,2013-09-26 17:28:00,
2013-09-26 12:33:00,83.4,66.2,29.88,South,180,11.6,13.4,56,0.00,,,0.00,WUHU216HW,2013-09-26 17:33:00,
2013-09-26 12:38:00,84.0,66.1,29.88,South,180,4.0,11.6,55,0.00,,,0.00,WUHU216HW,2013-09-26 17:38:00,
2013-09-26 12:43:00,84.2,65.7,29.88,SSE,158,6.9,17.2,54,0.00,,,0.00,WUHU216HW,2013-09-26 17:43:00,
2013-09-26 12:49:00,84.3,65.4,29.88,SSE,158,6.9,17.2,53,0.00,,,0.00,WUHU216HW,2013-09-26 17:49:00,
2013-09-26 12:54:00,84.3,65.4,29.88,South,180,12.7,12.7,53,0.00,,,0.00,WUHU216HW,2013-09-26 17:54:00,
2013-09-26 12:59:00,84.5,65.0,29.88,South,180,13.1,13.1,52,0.00,,,0.00,WUHU216HW,2013-09-26 17:59:00,
2013-09-26 13:04:00,85.1,66.0,29.88,SE,135,3.5,13.1,53,0.00,,,0.00,WUHU216HW,2013-09-26 18:04:00,
2013-09-26 13:09:00,85.6,66.0,29.87,South,180,13.8,13.8,52,0.00,,,0.00,WUHU216HW,2013-09-26 18:09:00,
2013-09-26 13:14:00,85.8,65.6,29.87,South,180,9.8,13.8,51,0.00,,,0.00,WUHU216HW,2013-09-26 18:14:00,
2013-09-26 13:19:00,86.1,65.4,29.87,South,180,4.6,13.8,50,0.00,,,0.00,WUHU216HW,2013-09-26 18:19:00,
2013-09-26 13:24:00,86.3,65.6,29.87,South,180,8.2,12.0,50,0.00,,,0.00,WUHU216HW,2013-09-26 18:24:00,
2013-09-26 13:29:00,86.1,65.4,29.86,SSE,158,4.0,12.0,50,0.00,,,0.00,WUHU216HW,2013-09-26 18:29:00,
2013-09-26 13:34:00,86.3,65.6,29.86,South,180,3.8,12.3,50,0.00,,,0.00,WUHU216HW,2013-09-26 18:34:00,
2013-09-26 13:39:00,86.5,66.3,29.86,South,180,5.3,12.3,51,0.00,,,0.00,WUHU216HW,2013-09-26 18:39:00,
2013-09-26 13:44:00,86.7,65.9,29.86,SE,135,0.0,5.3,50,0.00,,,0.00,WUHU216HW,2013-09-26 18:44:00,
2013-09-26 13:49:00,86.3,64.9,29.86,SSE,158,1.7,8.9,49,0.00,,,0.00,WUHU216HW,2013-09-26 18:49:00,
2013-09-26 13:55:00,86.0,65.3,29.86,SSE,158,10.9,10.9,50,0.00,,,0.00,WUHU216HW,2013-09-26 18:55:00,
2013-09-26 14:00:00,86.1,65.4,29.86,SSE,158,4.0,10.9,50,0.00,,,0.00,WUHU216HW,2013-09-26 19:00:00,
2013-09-26 14:04:00,86.5,65.7,29.86,South,180,17.4,17.4,50,0.00,,,0.00,WUHU216HW,2013-09-26 19:04:00,
2013-09-26 14:10:00,87.0,65.6,29.85,South,180,9.3,17.4,49,0.00,,,0.00,WUHU216HW,2013-09-26 19:10:00,
2013-09-26 14:15:00,87.6,65.4,29.86,SSW,203,8.2,9.3,48,0.00,,,0.00,WUHU216HW,2013-09-26 19:15:00,
2013-09-26 14:20:00,88.1,65.3,29.86,South,180,11.4,13.8,47,0.00,,,0.00,WUHU216HW,2013-09-26 19:20:00,
2013-09-26 14:25:00,88.1,65.3,29.85,SSE,158,6.7,13.8,47,0.00,,,0.00,WUHU216HW,2013-09-26 19:25:00,
2013-09-26 14:30:00,88.5,65.0,29.85,ENE,68,4.6,9.3,46,0.00,,,0.00,WUHU216HW,2013-09-26 19:30:00,
2013-09-26 14:35:00,88.3,64.8,29.85,South,180,4.4,9.3,46,0.00,,,0.00,WUHU216HW,2013-09-26 19:35:00,
2013-09-26 14:40:00,88.5,65.0,29.84,South,180,0.6,4.6,46,0.00,,,0.00,WUHU216HW,2013-09-26 19:40:00,
2013-09-26 14:45:00,88.7,65.1,29.85,WSW,248,11.4,11.4,46,0.00,,,0.00,WUHU216HW,2013-09-26 19:45:00,
2013-09-26 14:50:00,89.0,64.8,29.85,South,180,5.3,14.5,45,0.00,,,0.00,WUHU216HW,2013-09-26 19:50:00,
2013-09-26 14:55:00,89.0,64.8,29.84,South,180,5.8,14.5,45,0.00,,,0.00,WUHU216HW,2013-09-26 19:55:00,
2013-09-26 15:00:00,89.2,64.9,29.84,SSE,158,7.3,7.3,45,0.00,,,0.00,WUHU216HW,2013-09-26 20:00:00,
2013-09-26 15:05:00,89.2,64.9,29.84,SSE,158,6.4,7.3,45,0.00,,,0.00,WUHU216HW,2013-09-26 20:05:00,
2013-09-26 15:10:00,88.3,64.2,29.84,WNW,293,1.5,7.3,45,0.00,,,0.00,WUHU216HW,2013-09-26 20:10:00,
2013-09-26 15:15:00,88.3,64.8,29.84,SSE,158,3.5,5.5,46,0.00,,,0.00,WUHU216HW,2013-09-26 20:15:00,
2013-09-26 15:20:00,88.5,64.3,29.85,South,180,5.5,7.8,45,0.00,,,0.00,WUHU216HW,2013-09-26 20:20:00,
2013-09-26 15:25:00,88.5,64.3,29.85,SSE,158,3.8,8.9,45,0.00,,,0.00,WUHU216HW,2013-09-26 20:25:00,
2013-09-26 15:30:00,88.3,63.5,29.85,South,180,9.1,9.1,44,0.00,,,0.00,WUHU216HW,2013-09-26 20:30:00,
2013-09-26 15:36:00,87.9,64.5,29.84,South,180,9.3,9.3,46,0.00,,,0.00,WUHU216HW,2013-09-26 20:36:00,
2013-09-26 15:41:00,87.9,64.5,29.84,NNW,338,1.3,9.3,46,0.00,,,0.00,WUHU216HW,2013-09-26 20:41:00,
2013-09-26 15:46:00,88.8,64.6,29.84,SSE,158,4.6,9.3,45,0.00,,,0.00,WUHU216HW,2013-09-26 20:46:00,
2013-09-26 15:51:00,88.1,63.5,29.84,South,180,3.5,10.2,44,0.00,,,0.00,WUHU216HW,2013-09-26 20:51:00,
2013-09-26 15:56:00,87.9,63.2,29.84,SSW,203,4.9,10.2,44,0.00,,,0.00,WUHU216HW,2013-09-26 20:56:00,
2013-09-26 16:01:00,88.1,64.0,29.84,SSE,158,5.1,7.6,45,0.00,,,0.00,WUHU216HW,2013-09-26 21:01:00,
2013-09-26 16:06:00,88.3,63.5,29.84,SSE,158,3.8,7.6,44,0.00,,,0.00,WUHU216HW,2013-09-26 21:06:00,
2013-09-26 16:11:00,87.9,63.9,29.84,SSE,158,3.8,3.8,45,0.00,,,0.00,WUHU216HW,2013-09-26 21:11:00,
2013-09-26 16:16:00,88.3,63.5,29.83,SSE,158,6.7,6.7,44,0.00,,,0.00,WUHU216HW,2013-09-26 21:16:00,
2013-09-26 16:21:00,88.3,63.5,29.84,SSE,158,9.1,9.1,44,0.00,,,0.00,WUHU216HW,2013-09-26 21:21:00,
2013-09-26 16:26:00,88.7,63.8,29.83,SSE,158,4.4,9.1,44,0.00,,,0.00,WUHU216HW,2013-09-26 21:26:00,
2013-09-26 16:31:00,88.7,63.8,29.84,South,180,6.9,6.9,44,0.00,,,0.00,WUHU216HW,2013-09-26 21:31:00,
2013-09-26 16:37:00,89.4,63.8,29.84,ENE,68,3.1,6.9,43,0.00,,,0.00,WUHU216HW,2013-09-26 21:37:00,
2013-09-26 16:42:00,89.4,63.8,29.84,SE,135,1.5,6.9,43,0.00,,,0.00,WUHU216HW,2013-09-26 21:42:00,
2013-09-26 16:47:00,89.4,63.8,29.84,SSW,203,1.7,8.0,43,0.00,,,0.00,WUHU216HW,2013-09-26 21:47:00,
2013-09-26 16:52:00,89.4,63.8,29.83,SSW,203,2.4,8.0,43,0.00,,,0.00,WUHU216HW,2013-09-26 21:52:00,
2013-09-26 16:57:00,89.2,63.6,29.84,SSE,158,2.6,14.3,43,0.00,,,0.00,WUHU216HW,2013-09-26 21:57:00,
2013-09-26 17:02:00,88.8,63.3,29.84,SSE,158,4.4,14.3,43,0.00,,,0.00,WUHU216HW,2013-09-26 22:02:00,
2013-09-26 17:07:00,88.8,63.3,29.84,SSE,158,4.4,11.4,43,0.00,,,0.00,WUHU216HW,2013-09-26 22:07:00,
2013-09-26 17:12:00,88.7,63.2,29.84,SSE,158,1.7,4.4,43,0.00,,,0.00,WUHU216HW,2013-09-26 22:12:00,
2013-09-26 17:17:00,88.5,63.7,29.84,SSE,158,5.8,6.2,44,0.00,,,0.00,WUHU216HW,2013-09-26 22:17:00,
2013-09-26 17:22:00,88.5,63.7,29.84,SE,135,2.9,6.2,44,0.00,,,0.00,WUHU216HW,2013-09-26 22:22:00,
2013-09-26 17:27:00,88.5,63.7,29.84,SE,135,0.0,5.8,44,0.00,,,0.00,WUHU216HW,2013-09-26 22:27:00,
2013-09-26 17:32:00,88.5,63.7,29.84,SE,135,0.0,0.0,44,0.00,,,0.00,WUHU216HW,2013-09-26 22:32:00,
2013-09-26 17:37:00,87.4,63.4,29.84,SW,225,3.1,3.1,45,0.00,,,0.00,WUHU216HW,2013-09-26 22:37:00,
2013-09-26 17:42:00,86.9,62.9,29.85,South,180,11.4,11.4,45,0.00,,,0.00,WUHU216HW,2013-09-26 22:42:00,
2013-09-26 17:47:00,86.5,62.6,29.84,South,180,0.0,11.4,45,0.00,,,0.00,WUHU216HW,2013-09-26 22:47:00,
2013-09-26 17:53:00,85.6,62.4,29.85,South,180,3.3,11.4,46,0.00,,,0.00,WUHU216HW,2013-09-26 22:53:00,
2013-09-26 17:58:00,84.9,61.8,29.85,SE,135,1.7,6.2,46,0.00,,,0.00,WUHU216HW,2013-09-26 22:58:00,
2013-09-26 18:03:00,84.3,61.9,29.85,SSW,203,3.8,3.8,47,0.00,,,0.00,WUHU216HW,2013-09-26 23:03:00,
2013-09-26 18:08:00,83.4,61.7,29.85,South,180,5.3,5.3,48,0.00,,,0.00,WUHU216HW,2013-09-26 23:08:00,
2013-09-26 18:14:00,83.1,61.5,29.85,SSW,203,2.4,5.3,48,0.00,,,0.00,WUHU216HW,2013-09-26 23:14:00,
2013-09-26 18:19:00,82.5,61.4,29.85,SSE,158,2.4,5.1,49,0.00,,,0.00,WUHU216HW,2013-09-26 23:19:00,
2013-09-26 18:24:00,82.0,61.5,29.85,South,180,0.0,5.1,50,0.00,,,0.00,WUHU216HW,2013-09-26 23:24:00,
2013-09-26 18:30:00,81.6,61.2,29.85,SE,135,4.9,4.9,50,0.00,,,0.00,WUHU216HW,2013-09-26 23:30:00,
2013-09-26 18:35:00,81.1,61.2,29.85,ENE,68,1.5,4.9,51,0.00,,,0.00,WUHU216HW,2013-09-26 23:35:00,
2013-09-26 18:40:00,80.7,60.9,29.85,SE,135,0.0,4.9,51,0.00,,,0.00,WUHU216HW,2013-09-26 23:40:00,
2013-09-26 18:45:00,80.2,60.9,29.85,NE,45,0.0,1.5,52,0.00,,,0.00,WUHU216HW,2013-09-26 23:45:00,
2013-09-26 18:50:00,79.8,60.6,29.85,ESE,113,0.0,0.0,52,0.00,,,0.00,WUHU216HW,2013-09-26 23:50:00,
2013-09-26 18:55:00,79.3,60.6,29.85,SSE,158,0.0,0.0,53,0.00,,,0.00,WUHU216HW,2013-09-26 23:55:00,
2013-09-26 19:00:00,79.3,61.2,29.85,SSE,158,0.0,0.0,54,0.00,,,0.00,WUHU216HW,2013-09-27 00:00:00,
2013-09-26 19:05:00,78.4,60.9,29.85,SE,135,0.0,0.0,55,0.00,,,0.00,WUHU216HW,2013-09-27 00:05:00,
2013-09-26 19:10:00,77.7,60.7,29.85,SSW,203,0.0,1.5,56,0.00,,,0.00,WUHU216HW,2013-09-27 00:10:00,
2013-09-26 19:15:00,77.5,61.0,29.85,SE,135,0.0,1.5,57,0.00,,,0.00,WUHU216HW,2013-09-27 00:15:00,
2013-09-26 19:20:00,76.8,60.8,29.85,SSE,158,0.0,2.2,58,0.00,,,0.00,WUHU216HW,2013-09-27 00:20:00,
2013-09-26 19:25:00,76.6,60.7,29.85,SE,135,0.0,2.2,59,0.00,,,0.00,WUHU216HW,2013-09-27 00:25:00,
2013-09-26 19:31:00,76.2,60.9,29.86,SE,135,0.0,0.0,59,0.00,,,0.00,WUHU216HW,2013-09-27 00:31:00,
2013-09-26 19:36:00,75.7,60.9,29.86,SSE,158,1.1,1.1,60,0.00,,,0.00,WUHU216HW,2013-09-27 00:36:00,
2013-09-26 19:41:00,75.5,60.7,29.86,ESE,113,0.0,2.2,60,0.00,,,0.00,WUHU216HW,2013-09-27 00:41:00,
2013-09-26 19:46:00,75.2,60.4,29.86,SSW,203,2.6,2.6,60,0.00,,,0.00,WUHU216HW,2013-09-27 00:46:00,
2013-09-26 19:51:00,74.8,60.5,29.86,East,90,0.0,2.6,61,0.00,,,0.00,WUHU216HW,2013-09-27 00:51:00,
2013-09-26 19:56:00,74.6,60.7,29.86,ENE,68,0.0,0.0,62,0.00,,,0.00,WUHU216HW,2013-09-27 00:56:00,
2013-09-26 20:01:00,74.4,60.5,29.86,East,90,0.0,0.0,62,0.00,,,0.00,WUHU216HW,2013-09-27 01:01:00,
2013-09-26 20:06:00,74.1,60.6,29.86,SSE,158,0.0,0.0,63,0.00,,,0.00,WUHU216HW,2013-09-27 01:06:00,
2013-09-26 20:12:00,73.9,60.7,29.86,East,90,0.0,0.0,64,0.00,,,0.00,WUHU216HW,2013-09-27 01:12:00,
2013-09-26 20:17:00,73.5,60.6,29.87,SSE,158,0.0,0.0,64,0.00,,,0.00,WUHU216HW,2013-09-27 01:17:00,
2013-09-26 20:22:00,73.2,60.2,29.86,SE,135,0.0,0.0,64,0.00,,,0.00,WUHU216HW,2013-09-27 01:22:00,
2013-09-26 20:27:00,73.2,60.7,29.86,SE,135,0.0,0.0,65,0.00,,,0.00,WUHU216HW,2013-09-27 01:27:00,
2013-09-26 20:32:00,73.0,60.5,29.87,SSE,158,0.0,0.0,65,0.00,,,0.00,WUHU216HW,2013-09-27 01:32:00,
2013-09-26 20:37:00,72.6,60.2,29.87,SE,135,0.0,0.0,65,0.00,,,0.00,WUHU216HW,2013-09-27 01:37:00,
2013-09-26 20:42:00,72.5,60.4,29.87,SE,135,0.0,0.0,66,0.00,,,0.00,WUHU216HW,2013-09-27 01:42:00,
2013-09-26 20:48:00,72.3,60.2,29.87,SSE,158,0.0,0.0,66,0.00,,,0.00,WUHU216HW,2013-09-27 01:48:00,
2013-09-26 20:53:00,72.1,60.5,29.87,SSE,158,0.0,0.0,67,0.00,,,0.00,WUHU216HW,2013-09-27 01:53:00,
2013-09-26 20:58:00,71.9,60.3,29.88,SSE,158,0.0,0.0,67,0.00,,,0.00,WUHU216HW,2013-09-27 01:58:00,
2013-09-26 21:03:00,71.9,60.3,29.88,East,90,1.5,1.5,67,0.00,,,0.00,WUHU216HW,2013-09-27 02:03:00,
2013-09-26 21:09:00,71.7,60.2,29.88,SE,135,0.0,3.1,67,0.00,,,0.00,WUHU216HW,2013-09-27 02:09:00,
2013-09-26 21:14:00,71.7,60.2,29.88,South,180,0.0,3.1,67,0.00,,,0.00,WUHU216HW,2013-09-27 02:14:00,
2013-09-26 21:19:00,71.7,60.2,29.88,SSE,158,0.0,0.0,67,0.00,,,0.00,WUHU216HW,2013-09-27 02:19:00,
2013-09-26 21:24:00,71.7,60.2,29.88,SE,135,0.0,0.0,67,0.00,,,0.00,WUHU216HW,2013-09-27 02:24:00,
2013-09-26 21:29:00,71.7,60.2,29.88,SE,135,0.0,0.0,67,0.00,,,0.00,WUHU216HW,2013-09-27 02:29:00,
2013-09-26 21:34:00,71.7,60.2,29.88,South,180,3.1,3.1,67,0.00,,,0.00,WUHU216HW,2013-09-27 02:34:00,
2013-09-26 21:39:00,71.7,60.2,29.89,South,180,0.0,3.1,67,0.00,,,0.00,WUHU216HW,2013-09-27 02:39:00,
2013-09-26 21:44:00,71.4,60.2,29.89,SE,135,0.0,3.5,68,0.00,,,0.00,WUHU216HW,2013-09-27 02:44:00,
2013-09-26 21:49:00,71.4,60.2,29.89,SSE,158,1.5,3.5,68,0.00,,,0.00,WUHU216HW,2013-09-27 02:49:00,
2013-09-26 21:54:00,71.4,60.2,29.89,SSE,158,0.0,3.1,68,0.00,,,0.00,WUHU216HW,2013-09-27 02:54:00,
2013-09-26 21:59:00,71.2,60.1,29.89,SSW,203,2.9,3.1,68,0.00,,,0.00,WUHU216HW,2013-09-27 02:59:00,
2013-09-26 22:04:00,71.2,60.1,29.89,South,180,0.0,2.9,68,0.00,,,0.00,WUHU216HW,2013-09-27 03:04:00,
2013-09-26 22:09:00,70.8,59.7,29.89,SE,135,0.0,0.0,68,0.00,,,0.00,WUHU216HW,2013-09-27 03:09:00,
2013-09-26 22:14:00,70.8,59.7,29.90,East,90,1.1,1.1,68,0.00,,,0.00,WUHU216HW,2013-09-27 03:14:00,
2013-09-26 22:19:00,70.7,59.5,29.90,ESE,113,0.0,1.1,68,0.00,,,0.00,WUHU216HW,2013-09-27 03:19:00,
2013-09-26 22:24:00,70.5,59.8,29.90,ESE,113,0.0,0.6,69,0.00,,,0.00,WUHU216HW,2013-09-27 03:24:00,
2013-09-26 22:29:00,70.3,59.6,29.90,SSE,158,3.8,3.8,69,0.00,,,0.00,WUHU216HW,2013-09-27 03:29:00,
2013-09-26 22:35:00,70.3,59.6,29.90,South,180,0.0,3.8,69,0.00,,,0.00,WUHU216HW,2013-09-27 03:35:00,
2013-09-26 22:40:00,70.1,59.4,29.90,South,180,1.1,3.8,69,0.00,,,0.00,WUHU216HW,2013-09-27 03:40:00,
2013-09-26 22:45:00,70.1,59.4,29.90,SE,135,0.0,3.8,69,0.00,,,0.00,WUHU216HW,2013-09-27 03:45:00,
2013-09-26 22:50:00,69.9,59.7,29.91,ESE,113,0.0,1.1,70,0.00,,,0.00,WUHU216HW,2013-09-27 03:50:00,
2013-09-26 22:56:00,69.8,59.5,29.91,South,180,1.3,1.3,70,0.00,,,0.00,WUHU216HW,2013-09-27 03:56:00,
2013-09-26 23:01:00,69.6,59.3,29.91,South,180,1.1,2.2,70,0.00,,,0.00,WUHU216HW,2013-09-27 04:01:00,
2013-09-26 23:06:00,69.4,59.2,29.91,ENE,68,0.0,2.2,70,0.00,,,0.00,WUHU216HW,2013-09-27 04:06:00,
2013-09-26 23:11:00,69.2,59.0,29.91,SSE,158,0.0,1.1,70,0.00,,,0.00,WUHU216HW,2013-09-27 04:11:00,
2013-09-26 23:16:00,69.0,58.8,29.91,South,180,0.0,0.0,70,0.00,,,0.00,WUHU216HW,2013-09-27 04:16:00,
2013-09-26 23:21:00,68.9,59.1,29.91,SSE,158,0.0,0.0,71,0.00,,,0.00,WUHU216HW,2013-09-27 04:21:00,
2013-09-26 23:26:00,68.7,58.9,29.91,SSE,158,0.0,0.0,71,0.00,,,0.00,WUHU216HW,2013-09-27 04:26:00,
2013-09-26 23:31:00,68.7,58.9,29.91,East,90,0.0,0.0,71,0.00,,,0.00,WUHU216HW,2013-09-27 04:31:00,
2013-09-26 23:37:00,68.5,59.1,29.91,SSE,158,0.0,1.3,72,0.00,,,0.00,WUHU216HW,2013-09-27 04:37:00,
2013-09-26 23:42:00,68.3,59.0,29.91,East,90,2.6,2.6,72,0.00,,,0.00,WUHU216HW,2013-09-27 04:42:00,
2013-09-26 23:47:00,68.3,59.0,29.91,South,180,0.0,2.6,72,0.00,,,0.00,WUHU216HW,2013-09-27 04:47:00,
2013-09-26 23:52:00,68.1,58.8,29.91,South,180,1.5,2.6,72,0.00,,,0.00,WUHU216HW,2013-09-27 04:52:00,
2013-09-26 23:57:00,68.1,59.2,29.91,ESE,113,0.0,2.4,73,0.00,,,0.00,WUHU216HW,2013-09-27 04:57:00,